createdAt,value
2022-12-05T00:00:01.171Z,33.20
2022-12-05T00:02:29.228Z,33.63
2022-12-05T00:05:03.166Z,30.73
2022-12-05T00:07:31.025Z,34.97
2022-12-05T00:09:59.667Z,33.53
2022-12-05T00:12:28.936Z,32.60
2022-12-05T00:15:02.311Z,33.40
2022-12-05T00:17:30.273Z,32.90
2022-12-05T00:19:58.736Z,28.70
2022-12-05T00:22:27.387Z,32.93
2022-12-05T00:24:55.680Z,27.10
2022-12-05T00:27:23.460Z,31.37
2022-12-05T00:29:58.246Z,35.33
2022-12-05T00:32:26.151Z,30.20
2022-12-05T00:34:59.191Z,29.13
2022-12-05T00:37:27.413Z,34.93
2022-12-05T00:39:55.234Z,35.40
2022-12-05T00:42:23.113Z,33.83
2022-12-05T00:44:55.406Z,33.03
2022-12-05T00:47:23.301Z,27.70
2022-12-05T00:49:51.027Z,27.90
2022-12-05T00:52:18.771Z,29.97
2022-12-05T00:54:46.492Z,32.73
2022-12-05T00:57:14.584Z,36.07
2022-12-05T00:59:42.512Z,29.23
2022-12-05T01:02:11.750Z,31.83
2022-12-05T01:04:39.679Z,33.10
2022-12-05T01:07:07.366Z,28.47
2022-12-05T01:09:35.090Z,30.53
2022-12-05T01:12:02.832Z,32.80
2022-12-05T01:14:30.596Z,34.53
2022-12-05T01:16:58.656Z,31.37
2022-12-05T01:19:28.569Z,31.53
2022-12-05T01:21:56.367Z,30.87
2022-12-05T01:24:24.447Z,32.97
2022-12-05T01:26:52.685Z,34.53
2022-12-05T01:29:21.629Z,31.60
2022-12-05T01:31:49.832Z,31.97
2022-12-05T01:34:18.332Z,30.93
2022-12-05T01:36:48.080Z,30.33
2022-12-05T01:39:16.153Z,31.60
2022-12-05T01:41:45.438Z,28.20
2022-12-05T01:44:50.650Z,34.17
2022-12-05T01:49:46.241Z,31.40
2022-12-05T01:52:18.000Z,33.93
2022-12-05T01:54:45.750Z,29.50
2022-12-05T01:57:13.348Z,30.23
2022-12-05T01:59:42.541Z,29.70
2022-12-05T02:02:10.249Z,30.70
2022-12-05T02:04:39.743Z,31.57
2022-12-05T02:07:07.358Z,30.03
2022-12-05T02:09:36.992Z,36.50
2022-12-05T02:12:04.812Z,30.07
2022-12-05T02:14:35.346Z,31.43
2022-12-05T02:17:06.590Z,32.63
2022-12-05T02:19:54.430Z,30.37
2022-12-05T02:22:46.781Z,29.03
2022-12-05T02:25:46.731Z,28.20
2022-12-05T02:28:23.817Z,32.67
2022-12-05T02:30:54.053Z,32.40
2022-12-05T02:33:23.149Z,32.37
2022-12-05T02:35:53.569Z,28.27
2022-12-05T02:38:26.197Z,29.83
2022-12-05T02:41:01.001Z,29.43
2022-12-05T02:43:31.581Z,36.37
2022-12-05T02:46:01.725Z,29.00
2022-12-05T02:48:29.645Z,27.50
2022-12-05T02:50:58.095Z,33.00
2022-12-05T02:53:25.733Z,33.03
2022-12-05T02:55:53.505Z,32.87
2022-12-05T02:58:23.907Z,30.33
2022-12-05T03:00:54.313Z,32.63
2022-12-05T03:03:23.357Z,30.73
2022-12-05T03:05:53.484Z,33.23
2022-12-05T03:08:22.588Z,30.33
2022-12-05T03:10:50.203Z,29.50
2022-12-05T03:13:20.425Z,27.97
2022-12-05T03:15:48.927Z,29.07
2022-12-05T03:18:17.884Z,28.10
2022-12-05T03:20:47.883Z,23.40
2022-12-05T03:23:16.996Z,27.27
2022-12-05T03:25:49.960Z,23.43
2022-12-05T03:28:20.080Z,22.60
2022-12-05T03:30:47.798Z,27.57
2022-12-05T03:33:16.356Z,25.73
2022-12-05T03:35:45.701Z,27.37
2022-12-05T03:38:15.957Z,26.27
2022-12-05T03:40:45.152Z,29.23
2022-12-05T03:43:19.640Z,25.83
2022-12-05T03:45:49.775Z,27.00
2022-12-05T03:48:19.980Z,26.53
2022-12-05T03:50:48.243Z,28.47
2022-12-05T03:53:19.981Z,31.23
2022-12-05T03:55:50.181Z,27.07
2022-12-05T03:58:19.840Z,26.80
2022-12-05T04:00:47.720Z,28.43
2022-12-05T04:03:17.801Z,27.83
2022-12-05T04:05:47.429Z,31.70
2022-12-05T04:08:19.064Z,27.07
2022-12-05T04:10:50.784Z,26.80
2022-12-05T04:13:19.737Z,25.33
2022-12-05T04:16:08.126Z,29.77
2022-12-05T04:18:35.805Z,30.63
2022-12-05T04:21:21.500Z,27.23
2022-12-05T04:24:10.545Z,26.57
2022-12-05T04:26:37.329Z,25.53
2022-12-05T04:29:06.832Z,22.17
2022-12-05T04:31:35.560Z,27.10
2022-12-05T04:34:05.206Z,26.40
2022-12-05T04:36:34.160Z,23.77
2022-12-05T04:39:03.941Z,24.30
2022-12-05T04:41:33.431Z,25.00
2022-12-05T04:44:02.761Z,22.90
2022-12-05T04:46:30.448Z,25.17
2022-12-05T04:49:00.750Z,25.30
2022-12-05T04:51:29.929Z,25.53
2022-12-05T04:53:58.327Z,26.80
2022-12-05T04:56:28.616Z,24.00
2022-12-05T04:58:56.477Z,27.47
2022-12-05T05:01:24.724Z,23.17
2022-12-05T05:03:53.750Z,21.50
2022-12-05T05:06:21.460Z,24.13
2022-12-05T05:08:50.969Z,21.57
2022-12-05T05:11:21.162Z,23.83
2022-12-05T05:13:50.352Z,25.80
2022-12-05T05:16:19.349Z,25.67
2022-12-05T05:18:47.273Z,24.40
2022-12-05T05:21:20.042Z,23.70
2022-12-05T05:23:47.799Z,21.30
2022-12-05T05:26:15.398Z,24.53
2022-12-05T05:28:43.313Z,24.83
2022-12-05T05:31:12.384Z,23.23
2022-12-05T05:33:40.131Z,24.47
2022-12-05T05:36:09.025Z,23.67
2022-12-05T05:38:37.901Z,21.63
2022-12-05T05:41:05.721Z,23.23
2022-12-05T05:43:33.513Z,20.80
2022-12-05T05:46:04.475Z,22.87
2022-12-05T05:48:33.529Z,18.30
2022-12-05T05:51:01.352Z,19.03
2022-12-05T05:53:29.025Z,20.33
2022-12-05T05:55:56.680Z,21.30
2022-12-05T05:58:24.294Z,18.40
2022-12-05T06:00:52.055Z,18.47
2022-12-05T06:03:19.826Z,19.80
2022-12-05T06:05:58.830Z,19.23
2022-12-05T06:08:26.506Z,17.70
2022-12-05T06:10:54.227Z,20.83
2022-12-05T06:13:21.849Z,20.73
2022-12-05T06:15:49.539Z,19.07
2022-12-05T06:18:17.169Z,19.27
2022-12-05T06:20:52.970Z,17.37
2022-12-05T06:23:22.056Z,19.50
2022-12-05T06:25:49.927Z,15.63
2022-12-05T06:28:17.578Z,17.97
2022-12-05T06:30:45.301Z,19.03
2022-12-05T06:33:13.066Z,17.97
2022-12-05T06:35:40.782Z,18.53
2022-12-05T06:38:08.417Z,17.63
2022-12-05T06:40:40.941Z,16.67
2022-12-05T06:43:08.904Z,17.23
2022-12-05T06:45:38.684Z,19.37
2022-12-05T06:48:06.860Z,18.40
2022-12-05T06:50:34.728Z,17.07
2022-12-05T06:53:02.649Z,18.37
2022-12-05T06:55:30.375Z,15.63
2022-12-05T06:57:59.994Z,22.37
2022-12-05T07:00:45.245Z,24.67
2022-12-05T07:03:13.136Z,17.70
2022-12-05T07:05:41.035Z,18.20
2022-12-05T07:08:09.005Z,15.70
2022-12-05T07:10:36.900Z,18.77
2022-12-05T07:13:10.960Z,17.27
2022-12-05T07:15:42.267Z,18.80
2022-12-05T07:18:11.388Z,16.67
2022-12-05T07:21:03.957Z,15.03
2022-12-05T07:23:27.283Z,16.50
2022-12-05T07:25:55.192Z,16.80
2022-12-05T07:28:24.283Z,18.83
2022-12-05T07:31:00.547Z,16.37
2022-12-05T07:33:28.425Z,16.03
2022-12-05T07:36:00.510Z,18.37
2022-12-05T07:38:28.300Z,15.53
2022-12-05T07:40:55.958Z,16.57
2022-12-05T07:43:24.942Z,16.33
2022-12-05T07:45:52.733Z,15.00
2022-12-05T07:48:20.810Z,14.13
2022-12-05T07:50:48.981Z,16.77
2022-12-05T07:53:16.790Z,14.57
2022-12-05T07:55:44.653Z,17.27
2022-12-05T07:58:12.394Z,18.33
2022-12-05T08:00:41.770Z,16.50
2022-12-05T08:03:09.609Z,19.27
2022-12-05T08:05:37.900Z,15.43
2022-12-05T08:08:06.233Z,16.50
2022-12-05T08:10:35.668Z,16.03
2022-12-05T08:13:03.523Z,16.67
2022-12-05T08:15:31.286Z,16.60
2022-12-05T08:18:00.489Z,18.20
2022-12-05T08:20:28.373Z,16.33
2022-12-05T08:22:56.113Z,18.23
2022-12-05T08:25:23.973Z,17.13
2022-12-05T08:27:51.742Z,14.87
2022-12-05T08:30:19.739Z,13.07
2022-12-05T08:32:47.474Z,13.80
2022-12-05T08:35:17.186Z,13.87
2022-12-05T08:37:46.704Z,15.43
2022-12-05T08:40:14.673Z,15.00
2022-12-05T08:42:42.702Z,15.00
2022-12-05T08:45:11.211Z,14.67
2022-12-05T08:47:39.158Z,13.33
2022-12-05T08:50:08.561Z,16.30
2022-12-05T08:52:37.677Z,14.17
2022-12-05T08:55:06.077Z,14.57
2022-12-05T08:57:33.903Z,12.50
2022-12-05T09:00:01.797Z,12.03
2022-12-05T09:02:29.820Z,11.40
2022-12-05T09:05:13.305Z,11.60
2022-12-05T09:07:47.240Z,13.33
2022-12-05T09:10:15.350Z,13.73
2022-12-05T09:12:43.172Z,12.27
2022-12-05T09:15:12.233Z,10.27
2022-12-05T09:17:40.167Z,11.70
2022-12-05T09:20:11.678Z,12.10
2022-12-05T09:22:39.736Z,11.80
2022-12-05T09:25:10.457Z,10.37
2022-12-05T09:27:38.423Z,10.17
2022-12-05T09:30:07.645Z,10.37
2022-12-05T09:32:35.607Z,9.53
2022-12-05T09:35:03.752Z,10.00
2022-12-05T09:37:39.065Z,11.00
2022-12-05T09:40:11.774Z,22.60
2022-12-05T09:42:40.641Z,14.23
2022-12-05T09:45:17.408Z,11.17
2022-12-05T09:47:49.393Z,10.10
2022-12-05T09:50:21.158Z,9.40
2022-12-05T09:52:56.425Z,8.97
2022-12-05T09:55:25.498Z,8.37
2022-12-05T09:57:55.514Z,8.73
2022-12-05T10:00:23.319Z,8.00
2022-12-05T10:02:56.662Z,8.23
2022-12-05T10:05:26.814Z,7.63
2022-12-05T10:07:59.110Z,9.60
2022-12-05T10:10:32.180Z,7.93
2022-12-05T10:13:11.194Z,12.70
2022-12-05T10:15:43.868Z,8.20
2022-12-05T10:18:28.759Z,8.53
2022-12-05T10:20:59.143Z,8.20
2022-12-05T10:23:55.871Z,9.20
2022-12-05T10:26:18.154Z,8.87
2022-12-05T10:28:49.708Z,8.67
2022-12-05T10:31:19.322Z,8.73
2022-12-05T10:33:49.849Z,8.97
2022-12-05T10:36:17.839Z,8.60
2022-12-05T10:38:46.349Z,8.43
2022-12-05T10:41:15.453Z,8.30
2022-12-05T10:43:45.284Z,9.90
2022-12-05T10:46:17.015Z,9.43
2022-12-05T10:48:45.227Z,8.17
2022-12-05T10:51:15.372Z,9.77
2022-12-05T10:53:44.351Z,11.20
2022-12-05T10:56:40.561Z,15.73
2022-12-05T10:59:10.745Z,9.27
2022-12-05T11:01:39.031Z,9.97
2022-12-05T11:04:13.793Z,14.77
2022-12-05T11:06:41.893Z,14.87
2022-12-05T11:09:16.573Z,10.10
2022-12-05T11:11:44.389Z,9.10
2022-12-05T11:14:23.589Z,9.97
2022-12-05T11:16:54.078Z,9.07
2022-12-05T11:19:27.494Z,9.43
2022-12-05T11:21:55.408Z,9.17
2022-12-05T11:24:24.639Z,10.20
2022-12-05T11:26:52.615Z,10.70
2022-12-05T11:29:32.810Z,10.67
2022-12-05T11:32:00.586Z,10.23
2022-12-05T11:34:29.810Z,9.83
2022-12-05T11:36:59.700Z,9.83
2022-12-05T11:39:27.361Z,10.53
2022-12-05T11:42:07.624Z,10.43
2022-12-05T11:44:48.446Z,15.27
2022-12-05T11:47:21.066Z,11.67
2022-12-05T11:50:14.056Z,12.77
2022-12-05T11:52:51.478Z,13.80
2022-12-05T11:55:21.770Z,10.10
2022-12-05T11:58:09.774Z,10.07
2022-12-05T12:00:41.128Z,10.17
2022-12-05T12:03:31.334Z,12.83
2022-12-05T12:06:07.147Z,9.77
2022-12-05T12:08:40.908Z,11.70
2022-12-05T12:11:13.010Z,10.60
2022-12-05T12:13:48.533Z,10.20
2022-12-05T12:16:22.079Z,10.30
2022-12-05T12:19:00.724Z,10.03
2022-12-05T12:21:38.216Z,9.83
2022-12-05T12:24:10.781Z,9.37
2022-12-05T12:26:43.664Z,10.60
2022-12-05T12:29:16.229Z,11.10
2022-12-05T12:32:02.717Z,10.67
2022-12-05T12:34:50.680Z,11.53
2022-12-05T12:37:22.303Z,11.30
2022-12-05T12:39:52.776Z,12.03
2022-12-05T12:42:25.694Z,11.47
2022-12-05T12:45:34.595Z,12.27
2022-12-05T12:48:16.887Z,12.60
2022-12-05T12:50:45.584Z,12.53
2022-12-05T12:53:35.794Z,14.97
2022-12-05T12:56:08.773Z,12.30
2022-12-05T12:58:45.300Z,13.57
2022-12-05T13:01:16.587Z,13.70
2022-12-05T13:03:51.553Z,15.00
2022-12-05T13:06:21.993Z,14.30
2022-12-05T13:08:51.524Z,20.73
2022-12-05T13:11:19.682Z,18.00
2022-12-05T13:13:49.282Z,18.03
2022-12-05T13:16:22.304Z,15.40
2022-12-05T13:18:51.477Z,14.80
2022-12-05T13:21:19.302Z,15.07
2022-12-05T13:23:48.328Z,17.07
2022-12-05T13:26:16.891Z,15.23
2022-12-05T13:28:50.949Z,18.07
2022-12-05T13:31:19.519Z,22.60
2022-12-05T13:33:49.126Z,16.53
2022-12-05T13:36:36.560Z,12.20
2022-12-05T13:39:23.514Z,14.70
2022-12-05T13:42:10.189Z,12.03
2022-12-05T13:44:40.388Z,13.17
2022-12-05T13:47:10.133Z,11.37
2022-12-05T13:49:44.133Z,12.47
2022-12-05T13:52:15.228Z,15.17
2022-12-05T13:54:44.426Z,12.80
2022-12-05T13:58:00.045Z,21.47
2022-12-05T14:00:35.058Z,17.40
2022-12-05T14:03:07.268Z,11.70
2022-12-05T14:05:48.581Z,11.00
2022-12-05T14:09:04.213Z,13.13
2022-12-05T14:11:33.333Z,11.47
2022-12-05T14:14:04.827Z,11.17
2022-12-05T14:16:45.835Z,12.43
2022-12-05T14:19:33.971Z,11.47
2022-12-05T14:22:05.691Z,11.43
2022-12-05T14:24:39.526Z,11.03
2022-12-05T14:27:10.734Z,10.57
2022-12-05T14:29:47.047Z,11.30
2022-12-05T14:32:21.190Z,11.40
2022-12-05T14:34:53.952Z,10.33
2022-12-05T14:37:28.237Z,10.30
2022-12-05T14:39:56.888Z,8.67
2022-12-05T14:42:28.125Z,8.80
2022-12-05T14:44:57.329Z,8.90
2022-12-05T14:47:27.918Z,9.57
2022-12-05T14:50:02.478Z,10.13
2022-12-05T14:52:32.153Z,8.77
2022-12-05T14:55:03.061Z,8.80
2022-12-05T14:57:32.155Z,9.90
2022-12-05T15:00:01.242Z,9.73
2022-12-05T15:02:31.122Z,9.27
2022-12-05T15:05:01.578Z,9.97
2022-12-05T15:07:32.979Z,9.23
2022-12-05T15:10:01.991Z,11.07
2022-12-05T15:12:33.285Z,9.23
2022-12-05T15:15:05.766Z,9.97
2022-12-05T15:17:38.671Z,8.53
2022-12-05T15:20:08.501Z,9.80
2022-12-05T15:22:37.528Z,11.13
2022-12-05T15:25:26.299Z,9.63
2022-12-05T15:28:04.077Z,10.97
2022-12-05T15:30:32.231Z,11.67
2022-12-05T15:33:00.150Z,11.87
2022-12-05T15:35:28.626Z,12.87
2022-12-05T15:37:57.444Z,12.33
2022-12-05T15:40:26.166Z,11.10
2022-12-05T15:42:56.213Z,11.43
2022-12-05T15:45:25.312Z,10.13
2022-12-05T15:47:56.688Z,10.63
2022-12-05T15:50:28.388Z,9.40
2022-12-05T15:52:58.140Z,8.97
2022-12-05T15:55:28.529Z,8.20
2022-12-05T15:58:00.300Z,9.73
2022-12-05T16:00:28.220Z,8.97
2022-12-05T16:02:57.978Z,9.07
2022-12-05T16:05:26.792Z,13.27
2022-12-05T16:07:54.904Z,8.97
2022-12-05T16:10:29.125Z,10.37
2022-12-05T16:13:02.758Z,9.33
2022-12-05T16:15:30.500Z,9.70
2022-12-05T16:17:59.598Z,10.37
2022-12-05T16:20:31.438Z,8.90
2022-12-05T16:23:01.720Z,9.53
2022-12-05T16:25:30.214Z,10.10
2022-12-05T16:28:04.400Z,11.57
2022-12-05T16:30:32.343Z,12.07
2022-12-05T16:33:02.210Z,13.23
2022-12-05T16:35:32.511Z,14.63
2022-12-05T16:38:13.700Z,9.73
2022-12-05T16:40:42.209Z,8.57
2022-12-05T16:43:20.384Z,7.73
2022-12-05T16:45:48.294Z,6.77
2022-12-05T16:48:23.211Z,5.87
2022-12-05T16:50:52.186Z,6.50
2022-12-05T16:53:23.065Z,6.37
2022-12-05T16:55:50.888Z,6.30
2022-12-05T16:58:23.043Z,6.27
2022-12-05T17:00:51.433Z,6.90
2022-12-05T17:03:33.897Z,5.97
2022-12-05T17:06:02.838Z,6.07
2022-12-05T17:08:30.662Z,6.30
2022-12-05T17:10:58.900Z,6.67
2022-12-05T17:13:28.253Z,7.50
2022-12-05T17:15:56.078Z,7.27
2022-12-05T17:18:29.576Z,7.40
2022-12-05T17:20:59.365Z,7.33
2022-12-05T17:23:27.130Z,7.43
2022-12-05T17:25:55.904Z,6.63
2022-12-05T17:28:24.088Z,6.40
2022-12-05T17:30:53.556Z,5.53
2022-12-05T17:33:21.414Z,6.27
2022-12-05T17:35:49.281Z,6.07
2022-12-05T17:38:17.373Z,8.20
2022-12-05T17:43:24.812Z,6.27
2022-12-05T17:45:55.001Z,7.00
2022-12-05T17:48:22.771Z,6.23
2022-12-05T17:50:50.936Z,5.87
2022-12-05T17:53:19.702Z,6.50
2022-12-05T17:55:48.861Z,5.77
2022-12-05T17:58:16.817Z,5.87
2022-12-05T18:00:45.279Z,6.43
2022-12-05T18:03:16.133Z,5.80
2022-12-05T18:05:44.045Z,6.33
2022-12-05T18:08:11.797Z,6.00
2022-12-05T18:10:41.811Z,6.57
2022-12-05T18:13:10.100Z,7.40
2022-12-05T18:15:49.418Z,7.40
2022-12-05T18:18:18.752Z,6.97
2022-12-05T18:20:46.725Z,6.77
2022-12-05T18:23:14.416Z,11.73
2022-12-05T18:25:42.162Z,6.03
2022-12-05T18:28:09.829Z,6.03
2022-12-05T18:30:39.060Z,8.47
2022-12-05T18:33:07.538Z,8.57
2022-12-05T18:35:41.627Z,8.13
2022-12-05T18:38:09.897Z,8.20
2022-12-05T18:40:37.682Z,8.30
2022-12-05T18:43:06.165Z,7.60
2022-12-05T18:45:33.982Z,7.17
2022-12-05T18:48:16.262Z,7.97
2022-12-05T18:50:50.737Z,8.47
2022-12-05T18:53:18.546Z,10.10
2022-12-05T18:56:05.399Z,9.00
2022-12-05T18:58:34.078Z,11.17
2022-12-05T19:01:07.886Z,11.17
2022-12-05T19:03:35.993Z,10.33
2022-12-05T19:06:12.027Z,9.07
2022-12-05T19:08:39.719Z,9.53
2022-12-05T19:11:07.465Z,8.97
2022-12-05T19:13:36.144Z,10.43
2022-12-05T19:16:04.144Z,9.47
2022-12-05T19:18:31.853Z,9.53
2022-12-05T19:20:59.651Z,9.77
2022-12-05T19:23:28.609Z,8.83
2022-12-05T19:25:56.753Z,8.13
2022-12-05T19:28:24.517Z,9.27
2022-12-05T19:31:00.169Z,8.67
2022-12-05T19:33:31.719Z,9.40
2022-12-05T19:36:03.128Z,8.40
2022-12-05T19:38:33.970Z,8.00
2022-12-05T19:41:01.829Z,7.67
2022-12-05T19:43:30.455Z,8.30
2022-12-05T19:45:58.304Z,8.77
2022-12-05T19:48:26.010Z,8.43
2022-12-05T19:50:55.407Z,7.77
2022-12-05T19:53:23.149Z,7.30
2022-12-05T19:55:52.311Z,7.23
2022-12-05T19:58:19.952Z,7.40
2022-12-05T20:00:47.723Z,8.27
2022-12-05T20:03:15.508Z,7.13
2022-12-05T20:05:44.259Z,6.83
2022-12-05T20:08:12.010Z,6.83
2022-12-05T20:10:39.836Z,6.80
2022-12-05T20:13:24.084Z,6.20
2022-12-05T20:15:56.497Z,7.40
2022-12-05T20:18:24.121Z,7.10
2022-12-05T20:20:57.712Z,6.47
2022-12-05T20:23:25.413Z,7.17
2022-12-05T20:25:54.141Z,7.97
2022-12-05T20:28:23.184Z,8.17
2022-12-05T20:30:51.006Z,8.17
2022-12-05T20:33:18.771Z,7.20
2022-12-05T20:35:46.482Z,8.23
2022-12-05T20:38:14.189Z,7.70
2022-12-05T20:40:44.039Z,6.97
2022-12-05T20:43:11.780Z,7.57
2022-12-05T20:45:41.051Z,8.30
2022-12-05T20:48:08.833Z,7.70
2022-12-05T20:50:36.547Z,8.33
2022-12-05T20:53:04.252Z,7.90
2022-12-05T20:55:31.866Z,6.73
2022-12-05T20:58:03.785Z,7.70
2022-12-05T21:00:32.876Z,7.13
2022-12-05T21:03:02.149Z,6.60
2022-12-05T21:05:29.919Z,7.00
2022-12-05T21:07:57.786Z,6.57
2022-12-05T21:10:25.429Z,6.17
2022-12-05T21:12:54.234Z,6.23
2022-12-05T21:15:21.892Z,7.63
2022-12-05T21:17:49.658Z,7.63
2022-12-05T21:20:18.755Z,7.13
2022-12-05T21:22:46.466Z,8.63
2022-12-05T21:25:14.197Z,7.17
2022-12-05T21:27:42.076Z,7.80
2022-12-05T21:30:10.717Z,7.93
2022-12-05T21:32:38.444Z,7.17
2022-12-05T21:35:06.709Z,6.77
2022-12-05T21:37:36.662Z,7.00
2022-12-05T21:40:04.559Z,6.33
2022-12-05T21:42:32.309Z,6.80
2022-12-05T21:45:00.357Z,7.10
2022-12-05T21:47:28.871Z,8.27
2022-12-05T21:49:56.866Z,7.67
2022-12-05T21:52:24.715Z,7.43
2022-12-05T21:54:53.856Z,6.80
2022-12-05T21:57:21.504Z,7.37
2022-12-05T21:59:49.172Z,8.50
2022-12-05T22:02:16.886Z,6.60
2022-12-05T22:04:44.593Z,7.57
2022-12-05T22:07:12.195Z,8.07
2022-12-05T22:09:40.890Z,7.50
2022-12-05T22:12:10.070Z,7.50
2022-12-05T22:14:37.791Z,8.10
2022-12-05T22:17:05.474Z,8.67
2022-12-05T22:19:34.161Z,9.97
2022-12-05T22:22:02.947Z,8.53
2022-12-05T22:24:30.556Z,8.10
2022-12-05T22:26:58.354Z,8.67
2022-12-05T22:29:27.480Z,8.63
2022-12-05T22:31:55.178Z,8.43
2022-12-05T22:34:22.903Z,9.37
2022-12-05T22:36:51.688Z,9.23
2022-12-05T22:39:19.887Z,10.40
2022-12-05T22:41:48.602Z,10.43
2022-12-05T22:44:16.209Z,11.90
2022-12-05T22:46:45.336Z,10.70
2022-12-05T22:49:13.045Z,10.30
2022-12-05T22:51:40.869Z,10.10
2022-12-05T22:54:08.514Z,9.50
2022-12-05T22:56:36.145Z,10.07
2022-12-05T22:59:03.921Z,10.27
2022-12-05T23:01:32.211Z,10.23
2022-12-05T23:04:02.496Z,9.07
2022-12-05T23:06:30.549Z,10.20
2022-12-05T23:08:58.531Z,10.53
2022-12-05T23:11:26.788Z,9.97
2022-12-05T23:14:01.175Z,9.00
2022-12-05T23:16:30.940Z,9.10
2022-12-05T23:18:59.903Z,10.33
2022-12-05T23:21:30.473Z,9.73
2022-12-05T23:23:59.718Z,9.10
2022-12-05T23:26:28.466Z,10.70
2022-12-05T23:28:57.383Z,8.60
2022-12-05T23:31:25.199Z,9.47
2022-12-05T23:33:53.567Z,8.53
2022-12-05T23:36:21.718Z,8.87
2022-12-05T23:38:51.009Z,8.63
2022-12-05T23:41:26.213Z,9.47
2022-12-05T23:44:26.772Z,9.17
2022-12-05T23:47:14.411Z,10.20
2022-12-05T23:50:33.783Z,8.87
2022-12-05T23:53:26.452Z,10.03
2022-12-05T23:56:49.094Z,11.43
